createdAt,value
2022-12-09T00:00:55.581Z,9.00
2022-12-09T00:03:24.013Z,7.00
2022-12-09T00:05:52.173Z,8.50
2022-12-09T00:08:19.918Z,8.25
2022-12-09T00:10:48.281Z,7.25
2022-12-09T00:13:15.811Z,8.00
2022-12-09T00:15:43.447Z,7.25
2022-12-09T00:18:12.806Z,8.00
2022-12-09T00:20:40.219Z,8.00
2022-12-09T00:23:07.673Z,8.00
2022-12-09T00:25:35.242Z,8.75
2022-12-09T00:28:02.909Z,8.00
2022-12-09T00:30:30.326Z,8.00
2022-12-09T00:32:57.754Z,8.00
2022-12-09T00:35:27.252Z,8.00
2022-12-09T00:37:55.214Z,7.00
2022-12-09T00:40:22.712Z,5.00
2022-12-09T00:42:50.114Z,8.00
2022-12-09T00:45:17.603Z,7.75
2022-12-09T00:47:45.223Z,7.25
2022-12-09T00:50:12.788Z,7.00
2022-12-09T00:52:41.521Z,7.25
2022-12-09T00:55:09.917Z,7.75
2022-12-09T00:57:37.443Z,8.25
2022-12-09T01:00:05.464Z,8.00
2022-12-09T01:02:33.377Z,5.25
2022-12-09T01:05:01.441Z,8.00
2022-12-09T01:07:29.037Z,7.00
2022-12-09T01:09:57.787Z,7.00
2022-12-09T01:12:25.188Z,6.75
2022-12-09T01:14:52.575Z,7.00
2022-12-09T01:17:20.609Z,7.00
2022-12-09T01:19:48.260Z,6.00
2022-12-09T01:22:16.007Z,8.25
2022-12-09T01:24:43.418Z,8.00
2022-12-09T01:27:12.259Z,7.00
2022-12-09T01:29:39.690Z,9.25
2022-12-09T01:32:07.460Z,8.00
2022-12-09T01:34:35.009Z,8.00
2022-12-09T01:37:02.431Z,8.00
2022-12-09T01:39:31.062Z,8.75
2022-12-09T01:41:58.687Z,7.75
2022-12-09T01:44:27.913Z,8.00
2022-12-09T01:46:55.964Z,8.00
2022-12-09T01:49:26.008Z,7.75
2022-12-09T01:51:57.576Z,7.00
2022-12-09T01:54:25.842Z,7.75
2022-12-09T01:56:53.552Z,8.00
2022-12-09T01:59:21.183Z,7.75
2022-12-09T02:01:51.065Z,7.50
2022-12-09T02:04:19.059Z,7.50
2022-12-09T02:06:46.515Z,7.25
2022-12-09T02:09:15.529Z,7.00
2022-12-09T02:11:52.999Z,6.00
2022-12-09T02:14:22.392Z,6.50
2022-12-09T02:16:57.455Z,8.00
2022-12-09T02:19:40.565Z,7.00
2022-12-09T02:22:08.035Z,8.50
2022-12-09T02:24:39.336Z,8.00
2022-12-09T02:27:10.636Z,6.25
2022-12-09T02:29:47.238Z,7.00
2022-12-09T02:32:25.356Z,6.75
2022-12-09T02:34:55.884Z,6.50
2022-12-09T02:37:25.287Z,6.50
2022-12-09T02:39:57.120Z,5.50
2022-12-09T02:42:28.648Z,6.50
2022-12-09T02:44:56.975Z,8.00
2022-12-09T02:47:26.564Z,6.00
2022-12-09T02:49:56.895Z,7.00
2022-12-09T02:52:24.757Z,6.50
2022-12-09T02:54:52.730Z,7.00
2022-12-09T02:57:29.069Z,6.00
2022-12-09T02:59:56.863Z,6.00
2022-12-09T03:02:28.282Z,7.75
2022-12-09T03:05:04.749Z,7.00
2022-12-09T03:07:33.629Z,7.00
2022-12-09T03:10:05.104Z,6.00
2022-12-09T03:12:33.671Z,7.00
2022-12-09T03:15:01.393Z,6.00
2022-12-09T03:17:30.470Z,7.00
2022-12-09T03:20:00.304Z,8.00
2022-12-09T03:22:29.256Z,6.25
2022-12-09T03:24:58.833Z,6.25
2022-12-09T03:27:27.784Z,6.00
2022-12-09T03:29:55.219Z,5.00
2022-12-09T03:32:24.587Z,6.00
2022-12-09T03:34:52.085Z,7.00
2022-12-09T03:37:21.141Z,6.25
2022-12-09T03:39:48.874Z,7.00
2022-12-09T03:42:18.430Z,6.25
2022-12-09T03:44:46.308Z,6.25
2022-12-09T03:47:13.833Z,6.25
2022-12-09T03:49:41.314Z,5.00
2022-12-09T03:52:10.802Z,6.75
2022-12-09T03:54:42.702Z,7.00
2022-12-09T03:57:14.082Z,4.00
2022-12-09T03:59:47.851Z,5.50
2022-12-09T04:02:15.687Z,6.00
2022-12-09T04:04:43.529Z,6.00
2022-12-09T04:07:11.066Z,5.25
2022-12-09T04:09:43.193Z,6.00
2022-12-09T04:12:11.039Z,6.25
2022-12-09T04:14:38.556Z,5.75
2022-12-09T04:17:06.052Z,7.00
2022-12-09T04:19:33.485Z,6.50
2022-12-09T04:22:01.286Z,5.75
2022-12-09T04:24:29.017Z,6.00
2022-12-09T04:26:58.057Z,5.75
2022-12-09T04:29:25.474Z,5.25
2022-12-09T04:31:53.188Z,6.00
2022-12-09T04:34:20.756Z,7.00
2022-12-09T04:36:49.300Z,5.00
2022-12-09T04:39:17.020Z,5.50
2022-12-09T04:41:44.637Z,6.00
2022-12-09T04:44:13.544Z,6.00
2022-12-09T04:46:41.244Z,6.00
2022-12-09T04:49:08.936Z,5.00
2022-12-09T04:51:39.957Z,6.00
2022-12-09T04:54:08.183Z,5.00
2022-12-09T04:56:35.630Z,5.50
2022-12-09T04:59:03.065Z,5.00
2022-12-09T05:01:32.471Z,6.25
2022-12-09T05:04:00.514Z,5.00
2022-12-09T05:06:28.340Z,5.25
2022-12-09T05:08:55.986Z,6.25
2022-12-09T05:11:24.259Z,1.00
2022-12-09T05:13:52.526Z,5.00
2022-12-09T05:16:20.303Z,6.00
2022-12-09T05:18:49.908Z,5.00
2022-12-09T05:21:19.400Z,4.25
2022-12-09T05:23:47.238Z,6.00
2022-12-09T05:26:18.622Z,5.00
2022-12-09T05:28:46.281Z,5.00
2022-12-09T05:31:14.973Z,4.50
2022-12-09T05:33:43.320Z,5.00
2022-12-09T05:36:12.485Z,6.00
2022-12-09T05:38:40.417Z,5.00
2022-12-09T05:41:08.147Z,5.00
2022-12-09T05:43:36.878Z,4.00
2022-12-09T05:46:04.925Z,4.50
2022-12-09T05:48:32.575Z,5.00
2022-12-09T05:51:00.627Z,6.00
2022-12-09T05:53:29.730Z,5.00
2022-12-09T05:55:57.488Z,5.50
2022-12-09T05:58:25.221Z,4.75
2022-12-09T06:00:56.409Z,2.75
2022-12-09T06:03:24.351Z,4.00
2022-12-09T06:05:52.388Z,5.00
2022-12-09T06:08:20.449Z,4.25
2022-12-09T06:10:49.540Z,5.00
2022-12-09T06:13:17.075Z,4.00
2022-12-09T06:15:44.713Z,5.00
2022-12-09T06:18:12.320Z,5.00
2022-12-09T06:20:40.546Z,5.00
2022-12-09T06:23:08.059Z,4.00
2022-12-09T06:25:35.653Z,4.25
2022-12-09T06:28:04.736Z,5.00
2022-12-09T06:30:32.514Z,3.00
2022-12-09T06:33:00.040Z,4.75
2022-12-09T06:35:27.967Z,4.75
2022-12-09T06:37:55.956Z,4.00
2022-12-09T06:40:23.541Z,3.00
2022-12-09T06:42:51.390Z,3.75
2022-12-09T06:45:20.588Z,4.25
2022-12-09T06:47:48.457Z,3.50
2022-12-09T06:50:16.314Z,3.00
2022-12-09T06:52:44.189Z,4.00
2022-12-09T06:55:12.732Z,4.25
2022-12-09T06:57:40.753Z,4.00
2022-12-09T07:00:09.817Z,4.25
2022-12-09T07:02:39.060Z,3.00
2022-12-09T07:05:08.343Z,3.75
2022-12-09T07:07:36.281Z,3.75
2022-12-09T07:10:04.098Z,3.00
2022-12-09T07:12:31.694Z,4.00
2022-12-09T07:14:59.394Z,2.00
2022-12-09T07:17:27.090Z,3.00
2022-12-09T07:19:58.975Z,3.50
2022-12-09T07:22:29.587Z,3.00
2022-12-09T07:24:57.308Z,2.75
2022-12-09T07:27:25.098Z,4.00
2022-12-09T07:29:52.899Z,4.00
2022-12-09T07:32:20.708Z,4.00
2022-12-09T07:34:48.633Z,3.25
2022-12-09T07:37:17.635Z,3.00
2022-12-09T07:39:45.479Z,4.00
2022-12-09T07:42:13.244Z,2.00
2022-12-09T07:44:52.230Z,2.25
2022-12-09T07:47:19.871Z,3.25
2022-12-09T07:49:47.635Z,3.50
2022-12-09T07:52:16.481Z,4.00
2022-12-09T07:54:44.305Z,3.25
2022-12-09T07:57:11.982Z,3.00
2022-12-09T07:59:39.727Z,3.00
2022-12-09T08:02:07.670Z,4.00
2022-12-09T08:04:36.510Z,3.00
2022-12-09T08:07:04.647Z,2.00
2022-12-09T08:09:33.940Z,3.00
2022-12-09T08:12:01.948Z,3.00
2022-12-09T08:14:29.696Z,3.00
2022-12-09T08:16:57.311Z,3.00
2022-12-09T08:19:24.853Z,0.00
2022-12-09T08:21:54.784Z,2.75
2022-12-09T08:24:22.808Z,3.00
2022-12-09T08:26:52.103Z,3.00
2022-12-09T08:29:20.696Z,2.75
2022-12-09T08:31:48.417Z,3.00
2022-12-09T08:34:16.258Z,3.50
2022-12-09T08:36:44.263Z,3.00
2022-12-09T08:39:12.326Z,3.00
2022-12-09T08:41:40.236Z,3.00
2022-12-09T08:44:10.398Z,2.00
2022-12-09T08:46:39.089Z,2.25
2022-12-09T08:49:07.316Z,2.50
2022-12-09T08:51:35.173Z,1.50
2022-12-09T08:54:03.395Z,2.25
2022-12-09T08:56:31.365Z,3.00
2022-12-09T08:58:58.961Z,3.00
2022-12-09T09:01:32.258Z,3.00
2022-12-09T09:04:01.487Z,2.00
2022-12-09T09:06:29.436Z,2.00
2022-12-09T09:08:57.568Z,2.00
2022-12-09T09:11:25.478Z,2.00
2022-12-09T09:13:53.816Z,1.00
2022-12-09T09:16:22.801Z,3.00
2022-12-09T09:18:51.768Z,3.50
2022-12-09T09:21:21.065Z,6.00
2022-12-09T09:23:48.805Z,8.00
2022-12-09T09:26:17.310Z,7.00
2022-12-09T09:28:45.171Z,7.00
2022-12-09T09:31:13.753Z,7.00
2022-12-09T09:33:41.901Z,6.00
2022-12-09T09:36:13.593Z,8.00
2022-12-09T09:38:41.301Z,6.00
2022-12-09T09:41:15.472Z,6.25
2022-12-09T09:43:44.628Z,4.00
2022-12-09T09:46:12.424Z,4.00
2022-12-09T09:48:40.047Z,5.00
2022-12-09T09:51:11.815Z,5.00
2022-12-09T09:53:40.479Z,6.00
2022-12-09T09:56:15.113Z,5.25
2022-12-09T09:58:45.208Z,6.00
2022-12-09T10:01:14.596Z,5.00
2022-12-09T10:03:48.903Z,4.75
2022-12-09T10:06:27.017Z,5.00
2022-12-09T10:08:59.331Z,5.00
2022-12-09T10:11:30.720Z,5.00
2022-12-09T10:14:02.796Z,5.00
2022-12-09T10:16:33.054Z,6.00
2022-12-09T10:19:07.990Z,6.00
2022-12-09T10:21:41.609Z,5.25
2022-12-09T10:24:17.428Z,4.00
2022-12-09T10:26:45.143Z,4.25
2022-12-09T10:29:26.548Z,5.75
2022-12-09T10:31:54.051Z,3.50
2022-12-09T10:34:22.222Z,2.50
2022-12-09T10:36:51.298Z,4.50
2022-12-09T10:39:21.150Z,4.00
2022-12-09T10:42:09.042Z,6.00
2022-12-09T10:44:36.802Z,6.00
2022-12-09T10:47:06.195Z,4.75
2022-12-09T10:49:34.837Z,5.00
2022-12-09T10:52:04.627Z,6.00
2022-12-09T10:54:35.165Z,5.00
2022-12-09T10:57:08.931Z,5.00
2022-12-09T10:59:36.765Z,5.00
2022-12-09T11:02:17.520Z,5.00
2022-12-09T11:04:45.987Z,5.00
2022-12-09T11:07:17.593Z,4.50
2022-12-09T11:09:47.976Z,4.00
2022-12-09T11:12:18.604Z,5.00
2022-12-09T11:14:51.109Z,4.25
2022-12-09T11:17:20.402Z,4.00
2022-12-09T11:19:50.777Z,5.00
2022-12-09T11:22:36.430Z,4.25
2022-12-09T11:25:18.523Z,3.25
2022-12-09T11:27:50.263Z,1.50
2022-12-09T11:30:19.116Z,4.00
2022-12-09T11:32:59.821Z,4.00
2022-12-09T11:35:30.651Z,3.25
2022-12-09T11:38:01.483Z,3.50
2022-12-09T11:40:29.257Z,3.00
2022-12-09T11:42:57.051Z,4.00
2022-12-09T11:45:27.747Z,4.00
2022-12-09T11:48:25.830Z,4.25
2022-12-09T11:50:44.401Z,4.00
2022-12-09T11:53:26.735Z,4.00
2022-12-09T11:55:55.334Z,4.00
2022-12-09T11:58:25.141Z,5.00
2022-12-09T12:00:56.454Z,4.00
2022-12-09T12:03:24.898Z,4.00
2022-12-09T12:05:53.506Z,3.00
2022-12-09T12:08:28.157Z,4.00
2022-12-09T12:10:58.901Z,4.00
2022-12-09T12:13:28.807Z,4.00
2022-12-09T12:16:01.347Z,3.25
2022-12-09T12:18:30.456Z,3.25
2022-12-09T12:21:12.094Z,3.50
2022-12-09T12:23:51.889Z,3.75
2022-12-09T12:26:20.672Z,4.00
2022-12-09T12:29:11.074Z,3.75
2022-12-09T12:31:55.686Z,2.50
2022-12-09T12:34:27.395Z,3.00
2022-12-09T12:36:59.236Z,4.25
2022-12-09T12:39:39.309Z,4.00
2022-12-09T12:42:14.412Z,3.25
2022-12-09T12:45:04.487Z,4.00
2022-12-09T12:47:35.192Z,4.00
2022-12-09T12:50:16.996Z,4.50
2022-12-09T12:52:56.222Z,4.00
2022-12-09T12:55:37.189Z,4.00
2022-12-09T12:58:07.352Z,4.00
2022-12-09T13:00:37.507Z,4.25
2022-12-09T13:03:10.840Z,4.00
2022-12-09T13:05:39.008Z,4.00
2022-12-09T13:08:08.271Z,5.00
2022-12-09T13:10:39.526Z,2.00
2022-12-09T13:13:07.165Z,5.00
2022-12-09T13:15:38.532Z,4.00
2022-12-09T13:18:08.337Z,4.00
2022-12-09T13:20:42.005Z,3.75
2022-12-09T13:23:14.197Z,4.00
2022-12-09T13:25:46.264Z,4.00
2022-12-09T13:28:15.714Z,4.00
2022-12-09T13:30:49.677Z,4.00
2022-12-09T13:33:29.439Z,4.00
2022-12-09T13:36:02.777Z,4.00
2022-12-09T13:38:36.700Z,3.75
2022-12-09T13:41:56.798Z,5.00
2022-12-09T13:44:24.209Z,3.00
2022-12-09T13:46:51.641Z,4.00
2022-12-09T13:49:19.212Z,2.75
2022-12-09T13:51:48.188Z,4.00
2022-12-09T13:54:15.944Z,3.00
2022-12-09T13:56:44.916Z,4.00
2022-12-09T13:59:41.093Z,4.00
2022-12-09T14:02:20.727Z,4.25
2022-12-09T14:04:52.700Z,3.00
2022-12-09T14:07:23.383Z,1.75
2022-12-09T14:09:51.457Z,3.00
2022-12-09T14:12:57.638Z,3.00
2022-12-09T14:15:37.134Z,3.00
2022-12-09T14:18:05.470Z,3.00
2022-12-09T14:20:35.154Z,3.00
2022-12-09T14:23:13.273Z,0.00
2022-12-09T14:25:57.656Z,3.00
2022-12-09T14:28:41.536Z,3.00
2022-12-09T14:31:10.301Z,3.25
2022-12-09T14:33:38.598Z,2.00
2022-12-09T14:36:09.255Z,2.50
2022-12-09T14:38:54.308Z,3.00
2022-12-09T14:41:31.012Z,3.00
2022-12-09T14:44:04.533Z,3.00
2022-12-09T14:46:34.483Z,2.00
2022-12-09T14:49:03.227Z,3.00
2022-12-09T14:51:35.330Z,3.00
2022-12-09T14:54:05.024Z,3.25
2022-12-09T14:56:32.723Z,3.00
2022-12-09T14:59:01.604Z,3.00
2022-12-09T15:01:29.019Z,4.00
2022-12-09T15:03:58.773Z,4.00
2022-12-09T15:06:26.907Z,3.50
2022-12-09T15:08:55.701Z,3.25
2022-12-09T15:11:24.185Z,3.75
2022-12-09T15:13:53.779Z,2.00
2022-12-09T15:16:23.367Z,3.00
2022-12-09T15:18:50.835Z,3.00
2022-12-09T15:21:29.267Z,3.00
2022-12-09T15:23:56.723Z,3.00
2022-12-09T15:26:26.338Z,3.25
2022-12-09T15:28:55.311Z,1.00
2022-12-09T15:31:23.486Z,2.75
2022-12-09T15:33:51.775Z,3.00
2022-12-09T15:36:21.454Z,3.00
2022-12-09T15:38:51.184Z,3.00
2022-12-09T15:41:36.534Z,3.25
2022-12-09T15:44:06.329Z,2.00
2022-12-09T15:46:33.749Z,2.75
2022-12-09T15:49:01.254Z,3.00
2022-12-09T15:51:28.706Z,3.00
2022-12-09T15:53:58.637Z,3.00
2022-12-09T15:56:27.392Z,3.00
2022-12-09T15:58:55.648Z,2.00
2022-12-09T16:01:23.997Z,1.00
2022-12-09T16:03:51.758Z,3.00
2022-12-09T16:06:24.564Z,3.00
2022-12-09T16:08:52.002Z,2.25
2022-12-09T16:11:39.571Z,2.25
2022-12-09T16:14:06.977Z,3.00
2022-12-09T16:16:39.759Z,2.00
2022-12-09T16:19:07.224Z,3.00
2022-12-09T16:21:34.968Z,2.75
2022-12-09T16:24:06.627Z,2.00
2022-12-09T16:26:37.490Z,1.50
2022-12-09T16:29:07.070Z,2.00
2022-12-09T16:31:34.536Z,2.75
2022-12-09T16:34:02.020Z,3.00
2022-12-09T16:36:30.404Z,2.50
2022-12-09T16:39:33.237Z,2.75
2022-12-09T16:42:02.885Z,3.00
2022-12-09T16:44:33.908Z,3.00
2022-12-09T16:47:12.548Z,3.00
2022-12-09T16:49:40.736Z,2.00
2022-12-09T16:52:13.785Z,2.25
2022-12-09T16:54:41.346Z,2.00
2022-12-09T16:57:12.518Z,2.00
2022-12-09T16:59:41.421Z,2.00
2022-12-09T17:02:17.203Z,2.00
2022-12-09T17:04:44.680Z,2.00
2022-12-09T17:07:12.084Z,2.00
2022-12-09T17:09:39.473Z,2.25
2022-12-09T17:12:07.555Z,2.00
2022-12-09T17:14:34.980Z,3.00
2022-12-09T17:17:03.811Z,2.00
2022-12-09T17:19:33.093Z,2.25
2022-12-09T17:22:00.536Z,3.00
2022-12-09T17:24:27.935Z,2.75
2022-12-09T17:26:55.400Z,1.25
2022-12-09T17:29:22.809Z,2.00
2022-12-09T17:31:51.815Z,1.75
2022-12-09T17:34:20.622Z,1.50
2022-12-09T17:36:48.053Z,2.00
2022-12-09T17:39:16.100Z,2.00
2022-12-09T17:41:43.607Z,2.00
2022-12-09T17:44:11.026Z,2.50
2022-12-09T17:46:38.438Z,2.00
2022-12-09T17:49:05.840Z,2.00
2022-12-09T17:51:36.573Z,2.00
2022-12-09T17:54:04.146Z,1.75
2022-12-09T17:56:31.526Z,1.50
2022-12-09T17:59:00.776Z,2.50
2022-12-09T18:01:28.208Z,1.75
2022-12-09T18:03:59.374Z,2.00
2022-12-09T18:06:31.573Z,2.00
2022-12-09T18:09:00.284Z,2.00
2022-12-09T18:11:27.671Z,2.00
2022-12-09T18:13:55.082Z,3.00
2022-12-09T18:16:22.582Z,3.00
2022-12-09T18:18:50.083Z,3.00
2022-12-09T18:21:19.511Z,2.00
2022-12-09T18:23:48.076Z,3.75
2022-12-09T18:26:18.433Z,4.00
2022-12-09T18:28:45.927Z,4.75
2022-12-09T18:31:14.516Z,6.00
2022-12-09T18:33:42.205Z,5.00
2022-12-09T18:36:11.256Z,5.00
2022-12-09T18:38:38.729Z,2.00
2022-12-09T18:41:10.432Z,7.00
2022-12-09T18:43:39.820Z,7.50
2022-12-09T18:46:08.773Z,6.00
2022-12-09T18:48:36.343Z,8.00
2022-12-09T18:51:03.803Z,7.75
2022-12-09T18:53:31.219Z,8.00
2022-12-09T18:55:58.641Z,9.00
2022-12-09T18:58:42.876Z,9.00
2022-12-09T19:01:16.455Z,8.00
2022-12-09T19:03:43.902Z,8.75
2022-12-09T19:06:21.966Z,7.75
2022-12-09T19:08:53.508Z,10.00
2022-12-09T19:11:21.866Z,9.75
2022-12-09T19:13:49.361Z,10.00
2022-12-09T19:16:18.147Z,11.00
2022-12-09T19:18:45.628Z,9.50
2022-12-09T19:21:14.565Z,8.25
2022-12-09T19:23:43.366Z,10.00
2022-12-09T19:26:13.947Z,9.00
2022-12-09T19:28:45.191Z,9.50
2022-12-09T19:31:22.439Z,9.00
2022-12-09T19:33:49.914Z,8.25
2022-12-09T19:36:17.362Z,9.00
2022-12-09T19:38:44.856Z,9.75
2022-12-09T19:41:12.266Z,8.50
2022-12-09T19:43:39.687Z,9.25
2022-12-09T19:46:08.024Z,9.00
2022-12-09T19:48:37.353Z,6.75
2022-12-09T19:51:05.257Z,5.75
2022-12-09T19:53:32.896Z,8.75
2022-12-09T19:56:01.675Z,9.00
2022-12-09T19:58:29.336Z,7.25
2022-12-09T20:00:56.742Z,7.50
2022-12-09T20:03:24.247Z,7.25
2022-12-09T20:05:54.195Z,8.00
2022-12-09T20:08:21.634Z,8.00
2022-12-09T20:10:49.071Z,8.25
2022-12-09T20:13:16.492Z,7.25
2022-12-09T20:15:44.003Z,7.75
2022-12-09T20:18:14.063Z,8.00
2022-12-09T20:20:45.703Z,8.75
2022-12-09T20:23:17.491Z,9.00
2022-12-09T20:25:44.899Z,7.50
2022-12-09T20:28:12.309Z,9.00
2022-12-09T20:30:39.724Z,8.00
2022-12-09T20:33:07.118Z,8.00
2022-12-09T20:35:36.381Z,7.00
2022-12-09T20:38:03.950Z,7.50
2022-12-09T20:40:36.267Z,8.00
2022-12-09T20:43:07.749Z,8.00
2022-12-09T20:45:35.185Z,8.00
2022-12-09T20:48:02.622Z,7.75
2022-12-09T20:50:33.673Z,6.00
2022-12-09T20:53:05.699Z,7.25
2022-12-09T20:55:34.399Z,7.00
2022-12-09T20:58:01.827Z,7.50
2022-12-09T21:00:29.225Z,7.25
2022-12-09T21:02:56.644Z,7.00
2022-12-09T21:05:24.097Z,7.00
2022-12-09T21:07:51.554Z,7.00
2022-12-09T21:10:19.033Z,7.25
2022-12-09T21:12:47.749Z,7.50
2022-12-09T21:15:15.158Z,6.00
2022-12-09T21:17:42.579Z,5.00
2022-12-09T21:20:11.090Z,7.25
2022-12-09T21:22:39.858Z,7.00
2022-12-09T21:25:09.323Z,7.00
2022-12-09T21:27:36.770Z,7.25
2022-12-09T21:30:06.949Z,7.00
2022-12-09T21:32:34.615Z,7.25
2022-12-09T21:35:02.140Z,7.00
2022-12-09T21:37:29.605Z,7.25
2022-12-09T21:39:57.007Z,6.75
2022-12-09T21:42:24.412Z,6.00
2022-12-09T21:44:51.842Z,7.00
2022-12-09T21:47:20.536Z,7.00
2022-12-09T21:49:47.928Z,6.00
2022-12-09T21:52:15.313Z,7.25
2022-12-09T21:54:43.509Z,7.25
2022-12-09T21:57:10.923Z,7.50
2022-12-09T21:59:38.331Z,7.75
2022-12-09T22:02:06.111Z,6.25
2022-12-09T22:04:34.862Z,7.00
2022-12-09T22:07:02.271Z,7.00
2022-12-09T22:09:29.679Z,7.00
2022-12-09T22:11:57.095Z,6.50
2022-12-09T22:14:24.502Z,8.00
2022-12-09T22:16:51.934Z,7.00
2022-12-09T22:19:20.797Z,6.25
2022-12-09T22:21:49.557Z,5.50
2022-12-09T22:24:17.036Z,5.75
2022-12-09T22:26:45.095Z,6.00
2022-12-09T22:29:12.973Z,7.00
2022-12-09T22:31:40.612Z,7.00
2022-12-09T22:34:09.245Z,6.75
2022-12-09T22:36:37.004Z,5.00
2022-12-09T22:39:07.436Z,7.00
2022-12-09T22:41:34.972Z,6.00
2022-12-09T22:44:02.371Z,7.00
2022-12-09T22:46:30.944Z,7.00
2022-12-09T22:49:00.476Z,6.00
2022-12-09T22:51:29.157Z,6.00
2022-12-09T22:53:57.182Z,6.00
2022-12-09T22:56:26.404Z,6.25
2022-12-09T22:58:54.150Z,6.50
2022-12-09T23:01:22.362Z,6.75
2022-12-09T23:03:49.798Z,7.50
2022-12-09T23:06:17.274Z,7.00
2022-12-09T23:08:45.060Z,7.00
2022-12-09T23:11:13.515Z,6.00
2022-12-09T23:13:42.231Z,6.50
2022-12-09T23:16:12.219Z,7.00
2022-12-09T23:18:39.676Z,7.00
2022-12-09T23:21:08.190Z,6.00
2022-12-09T23:23:35.608Z,7.50
2022-12-09T23:26:04.826Z,8.00
2022-12-09T23:28:33.239Z,6.25
2022-12-09T23:31:03.583Z,6.00
2022-12-09T23:33:31.304Z,6.25
2022-12-09T23:35:58.725Z,6.50
2022-12-09T23:38:26.181Z,6.25
2022-12-09T23:40:53.639Z,6.25
2022-12-09T23:43:21.163Z,6.00
2022-12-09T23:45:48.602Z,7.00
2022-12-09T23:48:17.304Z,6.25
2022-12-09T23:50:44.706Z,6.75
2022-12-09T23:53:12.099Z,6.00
2022-12-09T23:55:42.374Z,7.00
2022-12-09T23:58:09.870Z,6.00
